createdAt,value
2023-11-07T00:01:42.808Z,2.70
2023-11-07T00:04:14.093Z,1.50
2023-11-07T00:06:44.914Z,1.77
2023-11-07T00:09:14.340Z,1.87
2023-11-07T00:11:43.314Z,1.63
2023-11-07T00:14:12.386Z,1.87
2023-11-07T00:16:41.170Z,2.10
2023-11-07T00:19:10.137Z,2.57
2023-11-07T00:21:40.489Z,3.40
2023-11-07T00:24:10.041Z,1.63
2023-11-07T00:26:38.990Z,2.23
2023-11-07T00:29:08.650Z,1.50
2023-11-07T00:31:37.357Z,2.60
2023-11-07T00:34:08.155Z,1.87
2023-11-07T00:36:37.005Z,1.87
2023-11-07T00:39:08.190Z,3.07
2023-11-07T00:41:37.157Z,5.30
2023-11-07T00:44:07.670Z,2.80
2023-11-07T00:46:36.731Z,2.57
2023-11-07T00:49:07.053Z,3.50
2023-11-07T00:51:36.015Z,3.60
2023-11-07T00:54:06.742Z,4.30
2023-11-07T00:56:35.881Z,4.53
2023-11-07T00:59:05.557Z,5.03
2023-11-07T01:01:34.346Z,3.47
2023-11-07T01:04:03.402Z,2.97
2023-11-07T01:06:33.771Z,2.60
2023-11-07T01:09:05.271Z,2.87
2023-11-07T01:11:36.220Z,4.40
2023-11-07T01:14:05.147Z,3.63
2023-11-07T01:16:34.029Z,2.97
2023-11-07T01:19:03.954Z,2.33
2023-11-07T01:21:32.867Z,5.20
2023-11-07T01:24:01.842Z,2.33
2023-11-07T01:26:30.809Z,2.50
2023-11-07T01:29:01.488Z,2.20
2023-11-07T01:31:30.289Z,3.03
2023-11-07T01:34:00.959Z,2.63
2023-11-07T02:41:16.812Z,2.40
2023-11-07T02:43:46.297Z,2.60
2023-11-07T02:46:15.141Z,2.70
2023-11-07T02:48:44.172Z,2.47
2023-11-07T02:51:18.541Z,3.03
2023-11-07T02:53:48.167Z,4.60
2023-11-07T02:56:19.258Z,2.37
2023-11-07T02:58:48.099Z,3.13
2023-11-07T03:01:22.485Z,1.77
2023-11-07T03:03:51.777Z,1.93
2023-11-07T03:06:21.554Z,2.30
2023-11-07T03:08:50.841Z,2.60
2023-11-07T03:11:22.499Z,2.40
2023-11-07T03:13:52.245Z,2.23
2023-11-07T03:16:20.969Z,3.20
2023-11-07T03:18:50.146Z,3.63
2023-11-07T03:21:20.249Z,3.63
2023-11-07T03:23:49.114Z,2.87
2023-11-07T03:26:17.929Z,3.53
2023-11-07T03:28:48.237Z,2.30
2023-11-07T03:31:17.064Z,3.00
2023-11-07T03:33:45.941Z,2.20
2023-11-07T03:36:16.522Z,1.57
2023-11-07T03:38:45.610Z,2.87
2023-11-07T03:41:14.884Z,3.40
2023-11-07T03:43:43.455Z,2.07
2023-11-07T03:46:15.272Z,2.20
2023-11-07T03:48:44.091Z,2.50
2023-11-07T03:51:13.097Z,2.17
2023-11-07T03:53:44.767Z,3.47
2023-11-07T03:56:13.729Z,2.63
2023-11-07T03:58:42.699Z,2.13
2023-11-07T04:01:11.996Z,3.30
2023-11-07T04:03:42.648Z,3.00
2023-11-07T04:06:11.781Z,2.63
2023-11-07T04:08:40.970Z,2.73
2023-11-07T04:11:09.927Z,3.13
2023-11-07T04:13:38.695Z,5.30
2023-11-07T04:16:09.671Z,3.20
2023-11-07T04:18:38.873Z,3.10
2023-11-07T04:21:10.126Z,4.13
2023-11-07T04:23:40.453Z,3.17
2023-11-07T04:26:10.126Z,4.83
2023-11-07T04:28:39.855Z,3.50
2023-11-07T04:31:09.309Z,5.20
2023-11-07T04:33:39.927Z,2.47
2023-11-07T04:36:11.244Z,4.10
2023-11-07T04:38:43.031Z,4.27
2023-11-07T04:41:12.026Z,3.00
2023-11-07T04:43:41.013Z,2.50
2023-11-07T04:46:09.824Z,6.50
2023-11-07T04:48:40.303Z,4.13
2023-11-07T04:51:12.485Z,3.47
2023-11-07T04:53:41.404Z,3.57
2023-11-07T04:56:11.148Z,2.80
2023-11-07T04:58:56.500Z,3.30
2023-11-07T05:01:28.038Z,2.93
2023-11-07T05:03:56.944Z,2.87
2023-11-07T05:06:29.161Z,3.23
2023-11-07T05:08:58.036Z,3.20
2023-11-07T05:11:28.901Z,3.40
2023-11-07T05:13:57.831Z,5.10
2023-11-07T05:16:26.542Z,3.33
2023-11-07T05:18:55.266Z,3.80
2023-11-07T05:21:24.130Z,4.70
2023-11-07T05:23:54.703Z,4.60
2023-11-07T05:26:24.237Z,4.20
2023-11-07T05:28:55.874Z,3.57
2023-11-07T05:31:25.980Z,4.60
2023-11-07T05:33:55.098Z,3.83
2023-11-07T05:36:24.232Z,4.03
2023-11-07T05:38:55.062Z,4.50
2023-11-07T05:41:25.313Z,3.23
2023-11-07T05:43:55.463Z,2.87
2023-11-07T05:46:24.946Z,4.30
2023-11-07T05:48:54.024Z,3.97
2023-11-07T05:51:24.587Z,2.90
2023-11-07T05:53:55.734Z,3.57
2023-11-07T05:56:25.067Z,4.07
2023-11-07T05:58:53.993Z,3.87
2023-11-07T06:01:23.290Z,5.17
2023-11-07T06:03:53.331Z,3.30
2023-11-07T06:06:22.264Z,4.73
2023-11-07T06:08:53.332Z,4.33
2023-11-07T06:11:23.967Z,4.10
2023-11-07T06:13:53.573Z,3.67
2023-11-07T06:16:22.749Z,9.17
2023-11-07T06:18:51.486Z,3.43
2023-11-07T06:21:20.280Z,4.17
2023-11-07T06:23:49.117Z,4.33
2023-11-07T06:26:18.003Z,4.83
2023-11-07T06:28:49.989Z,4.33
2023-11-07T06:31:25.714Z,7.63
2023-11-07T06:33:55.247Z,4.73
2023-11-07T06:36:25.474Z,6.47
2023-11-07T06:38:56.565Z,5.13
2023-11-07T06:41:26.003Z,3.90
2023-11-07T06:43:56.710Z,4.30
2023-11-07T06:46:25.738Z,5.73
2023-11-07T06:48:56.938Z,7.37
2023-11-07T06:51:27.340Z,5.07
2023-11-07T06:53:56.253Z,2.87
2023-11-07T06:56:25.169Z,4.07
2023-11-07T06:58:56.288Z,5.00
2023-11-07T07:01:26.795Z,4.47
2023-11-07T07:03:55.879Z,4.20
2023-11-07T07:06:26.379Z,3.90
2023-11-07T07:08:55.684Z,4.57
2023-11-07T07:11:24.629Z,4.40
2023-11-07T07:13:57.040Z,4.70
2023-11-07T07:16:31.675Z,4.13
2023-11-07T07:19:00.608Z,3.47
2023-11-07T07:21:29.602Z,3.43
2023-11-07T07:23:58.285Z,3.27
2023-11-07T07:26:28.563Z,3.97
2023-11-07T07:28:59.014Z,3.60
2023-11-07T07:31:35.083Z,4.43
2023-11-07T07:34:06.362Z,3.47
2023-11-07T07:36:44.452Z,5.30
2023-11-07T07:39:29.911Z,4.47
2023-11-07T07:42:01.763Z,3.90
2023-11-07T07:44:33.626Z,5.17
2023-11-07T07:47:04.083Z,3.00
2023-11-07T07:49:33.506Z,3.37
2023-11-07T07:52:04.200Z,4.70
2023-11-07T07:57:06.862Z,3.37
2023-11-07T07:59:35.689Z,4.97
2023-11-07T08:02:08.285Z,3.37
2023-11-07T08:04:37.321Z,4.40
2023-11-07T08:07:06.509Z,3.67
2023-11-07T08:09:35.415Z,3.90
2023-11-07T08:12:09.981Z,4.87
2023-11-07T08:14:39.064Z,3.13
2023-11-07T08:17:10.947Z,4.23
2023-11-07T08:19:39.818Z,3.57
2023-11-07T08:22:09.251Z,5.23
2023-11-07T08:24:38.138Z,2.70
2023-11-07T08:27:07.037Z,3.37
2023-11-07T08:29:35.885Z,3.10
2023-11-07T08:32:05.637Z,2.43
2023-11-07T08:34:36.475Z,2.73
2023-11-07T08:37:11.249Z,4.13
2023-11-07T08:39:42.455Z,3.87
2023-11-07T08:42:12.121Z,3.20
2023-11-07T08:44:41.736Z,3.67
2023-11-07T08:47:11.290Z,2.67
2023-11-07T08:49:41.573Z,3.83
2023-11-07T08:52:10.425Z,3.23
2023-11-07T08:54:39.168Z,3.80
2023-11-07T08:57:08.317Z,2.37
2023-11-07T08:59:41.896Z,3.30
2023-11-07T09:02:10.754Z,2.77
2023-11-07T09:04:41.189Z,4.20
2023-11-07T09:07:10.293Z,3.93
2023-11-07T09:09:40.993Z,2.60
2023-11-07T09:14:40.312Z,5.27
2023-11-07T09:17:10.001Z,3.57
2023-11-07T09:19:40.640Z,4.40
2023-11-07T09:22:10.865Z,2.50
2023-11-07T09:24:39.595Z,4.63
2023-11-07T09:27:09.458Z,2.00
2023-11-07T09:29:39.993Z,2.57
2023-11-07T09:32:09.409Z,3.23
2023-11-07T09:34:41.960Z,2.80
2023-11-07T09:37:11.241Z,2.70
2023-11-07T09:39:42.370Z,3.77
2023-11-07T09:42:11.475Z,5.67
2023-11-07T09:44:40.601Z,4.07
2023-11-07T09:47:09.627Z,2.97
2023-11-07T09:49:38.929Z,1.63
2023-11-07T09:52:10.332Z,2.38
2023-11-07T09:54:41.111Z,6.40
2023-11-07T09:57:10.625Z,4.50
2023-11-07T09:59:41.240Z,3.63
2023-11-07T10:02:10.498Z,1.83
2023-11-07T10:04:43.753Z,2.10
2023-11-07T10:07:14.454Z,2.50
2023-11-07T10:09:43.378Z,2.42
2023-11-07T10:12:16.886Z,1.75
2023-11-07T10:14:47.269Z,2.90
2023-11-07T10:17:23.386Z,2.33
2023-11-07T10:20:07.445Z,3.85
2023-11-07T10:22:47.426Z,2.28
2023-11-07T10:25:29.283Z,2.08
2023-11-07T10:28:02.494Z,2.67
2023-11-07T10:30:43.355Z,2.53
2023-11-07T10:33:13.487Z,2.65
2023-11-07T10:35:55.671Z,1.85
2023-11-07T10:38:26.480Z,1.85
2023-11-07T10:40:55.387Z,0.73
2023-11-07T10:43:35.312Z,3.00
2023-11-07T10:46:05.798Z,2.22
2023-11-07T10:48:37.203Z,1.65
2023-11-07T10:51:07.634Z,2.20
2023-11-07T10:53:38.862Z,2.15
2023-11-07T10:56:14.706Z,1.23
2023-11-07T10:58:52.057Z,2.97
2023-11-07T11:01:21.932Z,3.47
2023-11-07T11:03:52.448Z,2.63
2023-11-07T11:06:25.924Z,1.23
2023-11-07T11:08:58.845Z,2.70
2023-11-07T11:11:29.239Z,1.38
2023-11-07T11:14:00.225Z,1.20
2023-11-07T11:16:30.529Z,3.83
2023-11-07T11:19:03.467Z,2.65
2023-11-07T11:21:40.918Z,1.55
2023-11-07T11:24:17.778Z,1.52
2023-11-07T11:26:49.913Z,2.17
2023-11-07T11:29:25.980Z,2.00
2023-11-07T11:31:55.472Z,1.15
2023-11-07T11:34:26.740Z,2.20
2023-11-07T11:36:58.100Z,1.95
2023-11-07T11:39:47.952Z,1.45
2023-11-07T11:42:17.571Z,0.98
2023-11-07T11:44:46.583Z,1.58
2023-11-07T11:47:53.258Z,2.13
2023-11-07T11:50:22.586Z,2.05
2023-11-07T11:52:51.716Z,1.33
2023-11-07T11:55:22.037Z,1.70
2023-11-07T11:58:17.642Z,1.15
2023-11-07T12:00:52.208Z,1.60
2023-11-07T12:03:21.428Z,1.58
2023-11-07T12:06:07.793Z,1.05
2023-11-07T12:08:38.396Z,0.90
2023-11-07T12:11:09.277Z,1.00
2023-11-07T12:13:38.802Z,1.27
2023-11-07T12:16:19.953Z,1.50
2023-11-07T12:18:51.955Z,1.58
2023-11-07T12:21:28.523Z,1.73
2023-11-07T12:24:00.335Z,2.67
2023-11-07T12:26:45.107Z,1.02
2023-11-07T12:29:13.880Z,1.43
2023-11-07T12:31:43.066Z,2.25
2023-11-07T12:34:14.560Z,0.90
2023-11-07T12:36:45.734Z,1.93
2023-11-07T12:39:14.926Z,2.90
2023-11-07T12:41:46.274Z,1.43
2023-11-07T12:44:17.720Z,0.60
2023-11-07T12:46:47.280Z,3.07
2023-11-07T12:49:17.194Z,1.63
2023-11-07T12:51:46.253Z,2.17
2023-11-07T12:54:15.582Z,0.90
2023-11-07T12:56:46.702Z,2.13
2023-11-07T12:59:18.276Z,2.30
2023-11-07T13:01:49.114Z,1.53
2023-11-07T13:04:19.300Z,3.53
2023-11-07T13:06:56.762Z,4.93
2023-11-07T13:09:31.965Z,2.40
2023-11-07T13:12:16.613Z,1.00
2023-11-07T13:14:45.839Z,2.60
2023-11-07T13:17:14.799Z,3.23
2023-11-07T13:19:43.847Z,0.90
2023-11-07T13:22:18.860Z,1.20
2023-11-07T13:24:48.336Z,2.40
2023-11-07T13:27:20.151Z,1.63
2023-11-07T13:29:49.036Z,1.47
2023-11-07T13:32:17.869Z,1.70
2023-11-07T13:34:47.185Z,1.00
2023-11-07T13:37:17.327Z,2.40
2023-11-07T13:39:47.917Z,0.90
2023-11-07T13:42:16.871Z,2.67
2023-11-07T13:44:47.562Z,1.03
2023-11-07T13:47:16.710Z,1.87
2023-11-07T13:49:45.527Z,3.03
2023-11-07T13:52:14.212Z,2.10
2023-11-07T13:54:43.893Z,5.47
2023-11-07T13:57:13.864Z,1.60
2023-11-07T13:59:42.616Z,0.80
2023-11-07T14:02:13.964Z,1.40
2023-11-07T14:04:42.888Z,2.20
2023-11-07T14:07:12.456Z,1.30
2023-11-07T14:09:41.192Z,2.63
2023-11-07T14:12:10.214Z,1.90
2023-11-07T14:14:38.921Z,2.20
2023-11-07T14:17:07.606Z,2.70
2023-11-07T14:19:38.099Z,2.13
2023-11-07T14:22:07.760Z,1.00
2023-11-07T14:24:36.396Z,2.23
2023-11-07T14:27:06.470Z,4.03
2023-11-07T14:29:55.073Z,1.80
2023-11-07T14:32:25.178Z,3.87
2023-11-07T14:34:55.712Z,1.57
2023-11-07T14:37:25.053Z,0.83
2023-11-07T14:39:55.461Z,0.87
2023-11-07T14:42:24.465Z,3.30
2023-11-07T14:44:55.963Z,1.53
2023-11-07T14:47:24.888Z,1.57
2023-11-07T14:49:55.795Z,0.70
2023-11-07T14:52:24.598Z,1.07
2023-11-07T14:54:53.717Z,4.43
2023-11-07T14:57:22.830Z,1.57
2023-11-07T14:59:52.060Z,1.77
2023-11-07T15:02:27.625Z,1.10
2023-11-07T15:04:59.022Z,2.60
2023-11-07T15:07:28.283Z,1.90
2023-11-07T15:09:57.288Z,2.43
2023-11-07T15:12:26.358Z,2.33
2023-11-07T15:14:55.293Z,2.80
2023-11-07T15:17:24.141Z,1.30
2023-11-07T15:19:52.961Z,1.80
2023-11-07T15:22:23.387Z,1.20
2023-11-07T15:24:52.323Z,1.80
2023-11-07T15:27:21.537Z,1.57
2023-11-07T15:29:50.548Z,2.00
2023-11-07T15:32:19.266Z,1.60
2023-11-07T15:34:47.967Z,3.80
2023-11-07T15:37:17.035Z,1.53
2023-11-07T15:39:48.954Z,1.83
2023-11-07T15:42:17.889Z,2.57
2023-11-07T15:44:46.640Z,2.90
2023-11-07T15:47:15.305Z,1.27
2023-11-07T15:49:44.165Z,2.77
2023-11-07T15:52:13.969Z,1.90
2023-11-07T15:54:42.762Z,1.73
2023-11-07T15:57:13.860Z,1.87
2023-11-07T15:59:43.090Z,1.87
2023-11-07T16:02:12.033Z,3.23
2023-11-07T16:04:41.000Z,2.47
2023-11-07T16:07:09.854Z,2.60
2023-11-07T16:09:38.624Z,2.57
2023-11-07T16:12:10.495Z,2.80
2023-11-07T16:14:40.924Z,3.63
2023-11-07T16:17:10.214Z,3.57
2023-11-07T16:19:39.133Z,3.70
2023-11-07T16:22:07.930Z,4.07
2023-11-07T16:24:37.397Z,2.93
2023-11-07T16:27:09.641Z,3.70
2023-11-07T16:29:38.878Z,5.27
2023-11-07T16:32:09.928Z,3.00
2023-11-07T16:34:38.811Z,3.97
2023-11-07T16:37:07.681Z,3.87
2023-11-07T16:39:39.082Z,4.03
2023-11-07T16:42:10.475Z,2.80
2023-11-07T16:44:41.001Z,3.77
2023-11-07T16:47:12.774Z,4.13
2023-11-07T16:49:43.199Z,5.40
2023-11-07T16:52:12.228Z,7.13
2023-11-07T16:54:41.424Z,7.67
2023-11-07T16:57:11.300Z,9.10
2023-11-07T16:59:43.316Z,6.23
2023-11-07T17:02:14.653Z,5.73
2023-11-07T17:04:44.106Z,6.07
2023-11-07T17:07:13.811Z,6.10
2023-11-07T17:09:42.987Z,6.20
2023-11-07T17:12:11.716Z,7.43
2023-11-07T17:14:40.686Z,6.70
2023-11-07T17:17:10.206Z,5.97
2023-11-07T17:19:40.650Z,5.80
2023-11-07T17:22:10.754Z,5.97
2023-11-07T17:24:39.798Z,7.80
2023-11-07T17:27:08.816Z,6.00
2023-11-07T17:29:37.925Z,6.90
2023-11-07T17:32:10.059Z,8.53
2023-11-07T17:34:40.417Z,4.63
2023-11-07T17:37:09.105Z,4.73
2023-11-07T17:39:39.462Z,6.20
2023-11-07T17:42:10.092Z,5.60
2023-11-07T17:44:39.367Z,9.57
2023-11-07T17:47:08.469Z,6.60
2023-11-07T17:49:37.287Z,4.73
2023-11-07T17:52:08.120Z,5.13
2023-11-07T17:54:37.263Z,6.67
2023-11-07T17:57:06.890Z,6.50
2023-11-07T17:59:35.705Z,5.67
2023-11-07T18:02:04.659Z,5.83
2023-11-07T18:04:33.569Z,6.70
2023-11-07T18:07:03.155Z,5.93
2023-11-07T18:09:33.522Z,6.63
2023-11-07T18:12:02.338Z,5.30
2023-11-07T18:14:31.143Z,6.30
2023-11-07T18:17:00.193Z,4.93
2023-11-07T18:19:29.767Z,6.17
2023-11-07T18:21:58.598Z,5.60
2023-11-07T18:24:27.904Z,5.93
2023-11-07T18:26:58.541Z,6.57
2023-11-07T18:29:27.596Z,6.57
2023-11-07T18:31:56.602Z,5.57
2023-11-07T18:34:25.434Z,5.03
2023-11-07T18:37:01.872Z,5.40
2023-11-07T18:39:32.131Z,4.80
2023-11-07T18:42:02.633Z,6.20
2023-11-07T18:44:35.812Z,5.57
2023-11-07T18:47:06.450Z,4.23
2023-11-07T18:49:35.459Z,4.50
2023-11-07T18:52:05.015Z,5.40
2023-11-07T18:54:34.755Z,5.03
2023-11-07T18:57:05.398Z,10.70
2023-11-07T18:59:37.709Z,4.23
2023-11-07T19:02:08.075Z,3.73
2023-11-07T19:04:38.623Z,6.23
2023-11-07T19:07:08.341Z,4.87
2023-11-07T19:09:37.579Z,3.40
2023-11-07T19:12:09.071Z,4.97
2023-11-07T19:14:40.149Z,4.60
2023-11-07T19:17:09.536Z,5.33
2023-11-07T19:19:39.697Z,5.33
2023-11-07T19:22:08.667Z,5.70
2023-11-07T19:24:37.527Z,8.03
2023-11-07T19:27:09.937Z,6.10
2023-11-07T19:29:39.135Z,6.97
2023-11-07T19:32:09.113Z,5.60
2023-11-07T19:34:38.026Z,4.90
2023-11-07T19:37:07.701Z,7.00
2023-11-07T19:39:36.855Z,4.93
2023-11-07T19:42:07.711Z,6.97
2023-11-07T19:44:36.780Z,6.63
2023-11-07T19:47:05.913Z,6.00
2023-11-07T19:49:34.872Z,5.27
2023-11-07T19:52:04.085Z,6.53
2023-11-07T19:54:33.145Z,5.90
2023-11-07T19:57:02.037Z,5.80
2023-11-07T19:59:32.362Z,4.40
2023-11-07T20:02:02.420Z,3.70
2023-11-07T20:04:31.380Z,5.57
2023-11-07T20:07:00.623Z,5.80
2023-11-07T20:09:29.967Z,4.30
2023-11-07T20:12:00.775Z,5.40
2023-11-07T20:14:29.799Z,6.80
2023-11-07T20:17:00.155Z,5.43
2023-11-07T20:19:29.458Z,7.00
2023-11-07T20:21:58.890Z,6.57
2023-11-07T20:24:27.811Z,6.63
2023-11-07T20:26:57.143Z,4.57
2023-11-07T20:29:26.046Z,7.30
2023-11-07T20:31:55.001Z,4.20
2023-11-07T20:34:25.272Z,5.60
2023-11-07T20:36:54.037Z,4.70
2023-11-07T20:39:23.107Z,4.93
2023-11-07T20:41:52.015Z,5.57
2023-11-07T20:44:26.222Z,4.67
2023-11-07T20:47:00.333Z,5.20
2023-11-07T20:49:31.096Z,6.73
2023-11-07T20:51:59.959Z,5.73
2023-11-07T20:54:29.613Z,7.53
2023-11-07T20:56:58.628Z,6.17
2023-11-07T20:59:27.525Z,6.20
2023-11-07T21:01:58.510Z,5.67
2023-11-07T21:04:27.135Z,5.00
2023-11-07T21:06:58.066Z,4.17
2023-11-07T21:09:26.933Z,4.50
2023-11-07T21:11:55.934Z,4.77
2023-11-07T21:14:27.690Z,4.67
2023-11-07T21:16:57.018Z,6.43
2023-11-07T21:19:27.101Z,7.23
2023-11-07T21:22:01.304Z,5.37
2023-11-07T21:24:30.573Z,7.67
2023-11-07T21:26:59.497Z,6.40
2023-11-07T21:29:28.396Z,5.73
2023-11-07T21:31:57.133Z,4.23
2023-11-07T21:34:25.987Z,5.27
2023-11-07T21:36:55.006Z,4.20
2023-11-07T21:39:26.175Z,4.03
2023-11-07T21:41:55.006Z,6.10
2023-11-07T21:44:25.326Z,4.20
2023-11-07T21:46:55.900Z,4.00
2023-11-07T21:49:24.992Z,5.00
2023-11-07T21:51:53.854Z,4.67
2023-11-07T21:54:23.012Z,8.73
2023-11-07T21:56:53.299Z,4.60
2023-11-07T21:59:22.501Z,3.53
2023-11-07T22:01:51.552Z,6.37
2023-11-07T22:04:20.536Z,4.63
2023-11-07T22:06:49.562Z,5.20
2023-11-07T22:09:18.744Z,5.57
2023-11-07T22:11:47.729Z,5.27
2023-11-07T22:14:18.269Z,4.40
2023-11-07T22:16:48.243Z,4.10
2023-11-07T22:19:17.112Z,4.10
2023-11-07T22:21:46.067Z,3.87
2023-11-07T22:24:15.880Z,4.50
2023-11-07T22:26:44.754Z,6.53
2023-11-07T22:29:13.525Z,4.07
2023-11-07T22:31:44.757Z,5.43
2023-11-07T22:34:13.545Z,4.30
2023-11-07T22:36:42.731Z,6.30
2023-11-07T22:39:11.790Z,2.37
2023-11-07T22:41:40.532Z,3.27
2023-11-07T22:44:09.542Z,4.60
2023-11-07T22:46:38.355Z,5.63
2023-11-07T22:49:09.181Z,3.23
2023-11-07T22:51:38.164Z,3.40
2023-11-07T22:54:07.290Z,3.27
2023-11-07T22:56:36.860Z,7.73
2023-11-07T22:59:05.592Z,5.93
2023-11-07T23:01:34.869Z,3.43
2023-11-07T23:04:04.005Z,4.03
2023-11-07T23:06:35.273Z,4.63
2023-11-07T23:09:05.713Z,6.10
2023-11-07T23:11:34.746Z,3.73
2023-11-07T23:14:03.557Z,4.47
2023-11-07T23:16:32.364Z,5.60
2023-11-07T23:19:01.464Z,3.70
2023-11-07T23:21:30.307Z,7.23
2023-11-07T23:24:00.825Z,3.97
2023-11-07T23:26:38.222Z,5.07
2023-11-07T23:29:11.852Z,6.97
2023-11-07T23:31:40.570Z,4.77
2023-11-07T23:34:09.593Z,3.07
2023-11-07T23:36:38.552Z,4.67
2023-11-07T23:39:12.074Z,5.07
2023-11-07T23:41:41.576Z,5.73
2023-11-07T23:44:10.300Z,5.97
2023-11-07T23:46:41.577Z,4.80
2023-11-07T23:49:11.572Z,5.50
2023-11-07T23:51:40.477Z,4.03
2023-11-07T23:54:11.213Z,3.23
2023-11-07T23:56:40.732Z,5.43
2023-11-07T23:59:09.756Z,5.87
